Terminal Aerodrome Forecast
Issued by NWS

Home | Current Version | Previous Version | Text Only | Print | Product List | Glossary On
Versions: 1 2 3 4 5 6 7 8 9 10 11 12
000
FTUS45 KCYS 260531
TAFLAR
TAF
KLAR 260531Z 2606/2706 15007KT P6SM BKN090
     FM261000 16007KT 2SM BR BKN015
     FM261500 16015G25KT P6SM BKN050
     FM261900 19022G34KT P6SM VCTS BKN080CB
     FM270100 33011KT P6SM BKN080=

USA.gov is the U.S. government's official web portal to all federal, state and local government web resources and services.